• Join FlightAware (Why Join?)
  • Login
  • US Flag 
03:20PM EST


 

Airport Tracker/Info


-or-


 

Live Flight TrackerFlight Track Log ✈ N754DJ ✈ 22-Sep-2013 ✈ KJYR - KMSN

Flight Track Log - Related Links

Times and Time Zones

All times are in EDT time to prevent confusion due to time zone crossing. See the N754DJ flight status page for this flight to view local times or setup timezone preferences in your user account.

Time Position Orientation Groundspeed Altitude Reporting Facility
EDT Latitude Longitude Course Direction KTS MPH feet Rate Location/Type
02:34PM 40.9267 -97.4633 67° East 147 169 4,500  Level Minneapolis Center
02:35PM 40.9428 -97.4092 68° East 155 178 5,200 540 Climbing Minneapolis Center
02:36PM 40.9600 -97.3569 66° East 157 181 5,700 540 Climbing Minneapolis Center
02:37PM 40.9775 -97.3017 67° East 161 185 6,400 660 Climbing Minneapolis Center
02:38PM 40.9958 -97.2483 65° Northeast 160 184 7,100 660 Climbing Minneapolis Center
02:39PM 41.0103 -97.1942 71° East 157 181 7,800 720 Climbing Minneapolis Center
02:40PM 40.9956 -97.3096 67° East  Level Estimated
02:41PM 41.0308 -97.1308 67° East 156 180 8,600  Level Minneapolis Center
02:42PM 41.0483 -97.0783 66° East 156 180 9,200 660 Climbing Minneapolis Center
02:42PM 41.0469 -97.0339 92° East 158 182 9,800 660 Climbing Minneapolis Center
02:43PM 41.0656 -97.0244 21° North 158 182 9,900 480 Climbing Minneapolis Center
02:44PM 41.0822 -96.9708 68° East 158 182 10,500 600 Climbing Minneapolis Center
02:44PM 41.0719 -96.9567 134° Southeast 161 185 10,600 480 Climbing Minneapolis Center
02:45PM 41.0992 -96.9142 50° Northeast 162 186 11,000 480 Climbing Minneapolis Center
02:45PM 41.0897 -96.9025 137° Southeast 167 192 11,100  Climbing Minneapolis Center
02:45PM 41.1039 -96.8569 68° East 185 213 11,000  Descending Minneapolis Center
02:46PM 41.1175 -96.8533 11° North 172 198 11,100 60 Climbing Minneapolis Center
02:47PM 41.1422 -96.7761 67° East 186 214 11,100 -120 Level Minneapolis Center
02:47PM 41.1322 -96.7711 159° South 189 217 11,000 -180 Descending Minneapolis Center
02:47PM 41.1464 -96.7281 66° East 189 217 11,000 60 Level Minneapolis Center
02:48PM 41.1619 -96.7125 37° Northeast 187 215 11,100  Climbing Minneapolis Center
02:48PM 41.1678 -96.6650 81° East 188 216 11,000  Descending Minneapolis Center
02:49PM 41.1819 -96.6481 42° Northeast 188 216 11,100  Climbing Minneapolis Center
02:50PM 41.1942 -96.5819 76° East 187 215 11,000  Descending Minneapolis Center
02:50PM 41.2014 -96.5847 344° North 186 214 11,100  Climbing Minneapolis Center
02:51PM 41.2153 -96.5161 75° East 187 215 11,000  Descending Minneapolis Center
02:51PM 41.2217 -96.5208 331° Northwest 187 215 11,100  Climbing Minneapolis Center
02:52PM 41.2331 -96.4642 75° East 186 214 11,000  Descending Minneapolis Center
02:52PM 41.2411 -96.4561 37° Northeast 188 216 11,100  Climbing Minneapolis Center
02:53PM 41.2525 -96.4039 74° East 186 214 11,000  Descending Minneapolis Center
02:53PM 41.2644 -96.3803 56° Northeast 186 214 11,100  Climbing Minneapolis Center
02:54PM 41.2717 -96.3436 75° East 184 212 11,000  Descending Minneapolis Center
02:54PM 41.2836 -96.3178 58° Northeast 183 211 11,100  Climbing Minneapolis Center
02:55PM 41.2928 -96.2778 73° East 185 213 11,000  Descending Minneapolis Center
02:55PM 41.3028 -96.2550 60° Northeast 184 212 11,100  Climbing Minneapolis Center
02:56PM 41.3136 -96.2114 72° East 183 211 11,000  Descending Minneapolis Center
02:56PM 41.3222 -96.1917 60° Northeast 184 212 11,100  Climbing Minneapolis Center
02:57PM 41.3347 -96.1481 69° East 184 212 11,000  Descending Minneapolis Center
02:57PM 41.3411 -96.1292 66° East 183 211 11,100  Climbing Minneapolis Center
02:58PM 41.3536 -96.0850 69° East 184 212 11,000  Descending Minneapolis Center
02:58PM 41.3603 -96.0667 64° Northeast 182 209 11,100  Climbing Minneapolis Center
02:59PM 41.3744 -96.0186 69° East 184 212 11,000  Descending Minneapolis Center
02:59PM 41.3811 -95.9975 67° East 185 213 11,100  Climbing Minneapolis Center
03:00PM 41.3936 -95.9581 67° East 185 213 11,000  Descending Minneapolis Center
03:00PM 41.4000 -95.9333 71° East 185 213 11,100  Climbing Minneapolis Center
03:01PM 41.4142 -95.8919 65° Northeast 184 212 11,000  Descending Minneapolis Center
03:01PM 41.4192 -95.8700 73° East 185 213 11,100  Climbing Minneapolis Center
03:02PM 41.4369 -95.8225 63° Northeast 184 212 11,000 -120 Descending Minneapolis Center
03:02PM 41.4417 -95.7950 77° East 183 211 11,000  Level Minneapolis Center
03:03PM 41.4608 -95.7306 68° East 184 212 11,000  Level Minneapolis Center
03:04PM 41.4794 -95.6681 68° East 183 211 11,000  Level Minneapolis Center
03:05PM 41.4983 -95.6044 68° East 184 212 11,000  Level Minneapolis Center
03:06PM 41.5169 -95.5414 68° East 183 211 11,000  Level Minneapolis Center
03:07PM 41.5361 -95.4764 68° East 185 213 11,000  Level Minneapolis Center
03:08PM 41.5583 -95.4014 68° East 184 212 11,000  Level Minneapolis Center
03:09PM 41.5769 -95.3367 69° East 184 212 11,000  Level Minneapolis Center
03:11PM 41.5964 -95.2719 68° East 186 214 11,000  Level Minneapolis Center
03:12PM 41.6156 -95.2075 68° East 187 215 11,000  Level Minneapolis Center
03:13PM 41.6350 -95.1428 68° East 187 215 11,000  Level Minneapolis Center
03:14PM 41.6542 -95.0750 69° East 191 220 11,000  Level Minneapolis Center
03:15PM 41.6753 -94.9964 70° East 189 217 11,000  Level Minneapolis Center
03:16PM 41.6958 -94.9297 68° East 191 220 11,100  Climbing Minneapolis Center
03:17PM 41.7156 -94.8639 68° East 191 220 11,100  Level Minneapolis Center
03:18PM 41.7347 -94.7972 69° East 192 221 11,100  Level Minneapolis Center
03:19PM 41.7547 -94.7300 68° East 193 222 11,100  Level Minneapolis Center
03:20PM 41.7742 -94.6628 69° East 193 222 11,100 -60 Level Minneapolis Center
03:21PM 41.7953 -94.5803 71° East 195 224 11,000 -60 Descending Minneapolis Center
03:22PM 41.8150 -94.5131 68° East 194 223 11,000  Level Minneapolis Center
03:23PM 41.8336 -94.4456 70° East 194 223 11,000  Level Minneapolis Center
03:24PM 41.8531 -94.3778 69° East 194 223 11,000  Level Minneapolis Center
03:25PM 41.8725 -94.3108 69° East 194 223 11,000  Level Minneapolis Center
03:26PM 41.8922 -94.2431 69° East 195 224 11,000  Level Minneapolis Center
03:27PM 41.9111 -94.1744 70° East 196 226 11,000  Level Minneapolis Center
03:28PM 41.9339 -94.0936 69° East 195 224 11,000  Level Minneapolis Center
03:29PM 41.9522 -94.0261 70° East 194 223 11,000  Level Minneapolis Center
03:30PM 41.9711 -93.9569 70° East 196 226 11,000  Level Minneapolis Center
03:31PM 41.9897 -93.8886 70° East 197 227 11,000  Level Minneapolis Center
03:32PM 42.0117 -93.8142 68° East 197 227 11,000  Level Minneapolis Center
03:33PM 42.0297 -93.7461 70° East 196 226 11,000  Level Minneapolis Center
03:34PM 42.0483 -93.6775 70° East 196 226 11,000  Level Minneapolis Center
03:35PM 42.0675 -93.6106 69° East 194 223 11,000  Level Minneapolis Center
03:36PM 42.0897 -93.5278 70° East 197 227 11,000  Level Minneapolis Center
03:37PM 42.1089 -93.4597 69° East 196 226 11,000  Level Minneapolis Center
03:38PM 42.1275 -93.3911 70° East 197 227 11,000  Level Minneapolis Center
03:39PM 42.1464 -93.3228 70° East 196 226 11,000  Level Minneapolis Center
03:41PM 42.1639 -93.2539 71° East 197 227 11,000  Level Minneapolis Center
03:42PM 42.1869 -93.1719 69° East 195 224 11,000  Level Minneapolis Center
03:43PM 42.2047 -93.1044 70° East 195 224 11,000  Level Minneapolis Center
03:43PM 42.2147 -93.0608 73° East 195 224 11,000  Level Chicago Center
03:44PM 42.2336 -92.9936 69° East 195 224 11,000  Level Chicago Center
03:45PM 42.2522 -92.9242 70° East 197 227 11,000  Level Chicago Center
03:46PM 42.2692 -92.8558 71° East 194 223 11,000  Level Chicago Center
03:47PM 42.2917 -92.7739 70° East 196 226 11,100  Climbing Chicago Center
03:48PM 42.3097 -92.7042 71° East 197 227 11,100  Level Chicago Center
03:49PM 42.3275 -92.6367 70° East 195 224 11,100  Level Chicago Center
03:50PM 42.3458 -92.5664 71° East 198 228 11,100  Level Chicago Center
03:51PM 42.3636 -92.4975 71° East 196 226 11,100  Level Chicago Center
03:52PM 42.3858 -92.4142 70° East 198 228 11,100  Level Chicago Center
03:54PM 42.4039 -92.3461 70° East 196 226 11,100  Level Chicago Center
03:55PM 42.4211 -92.2792 71° East 193 222 11,100  Level Chicago Center
03:56PM 42.4392 -92.2114 70° East 192 221 11,100  Level Chicago Center
03:57PM 42.4603 -92.1300 71° East 193 222 11,100 -60 Level Chicago Center
03:58PM 42.4781 -92.0614 71° East 194 223 11,000 -60 Descending Chicago Center
03:59PM 42.4961 -91.9919 71° East 195 224 11,000  Level Chicago Center
04:00PM 42.5142 -91.9233 70° East 196 226 11,000  Level Chicago Center
04:01PM 42.5319 -91.8550 71° East 195 224 11,000  Level Chicago Center
04:02PM 42.5525 -91.7742 71° East 194 223 11,000 -60 Level Chicago Center
04:03PM 42.5697 -91.7069 71° East 192 221 10,900 -60 Descending Chicago Center
04:04PM 42.5869 -91.6403 71° East 191 220 10,900  Level Chicago Center
04:05PM 42.6044 -91.5731 71° East 191 220 10,900  Level Chicago Center
04:06PM 42.6233 -91.4928 72° East 191 220 10,900  Level Chicago Center
04:07PM 42.6411 -91.4264 70° East 189 217 10,900  Level Chicago Center
04:08PM 42.6575 -91.3586 72° East 191 220 10,900  Level Chicago Center
04:09PM 42.6744 -91.2906 71° East 192 221 10,900  Level Chicago Center
04:10PM 42.6944 -91.2106 71° East 190 219 10,900  Level Chicago Center
04:11PM 42.7108 -91.1428 72° East 190 219 10,900  Level Chicago Center
04:12PM 42.7272 -91.0750 72° East 191 220 10,900  Level Chicago Center
04:13PM 42.7444 -91.0075 71° East 192 221 10,900  Level Chicago Center
04:14PM 42.7606 -90.9389 72° East 192 221 10,900  Level Chicago Center
04:15PM 42.7811 -90.8581 71° East 192 221 10,900  Level Chicago Center
04:16PM 42.7978 -90.7892 72° East 193 222 10,900  Level Chicago Center
04:17PM 42.8144 -90.7222 71° East 190 219 10,900 -180 Level Chicago Center
04:18PM 42.8308 -90.6525 72° East 194 223 10,600 -420 Descending Chicago Center
04:19PM 42.8519 -90.5642 72° East 203 234 10,100 -480 Descending Chicago Center
04:20PM 42.8697 -90.4919 71° East 204 235 9,600 -480 Descending Chicago Center
04:21PM 42.8869 -90.4189 72° East 204 235 9,100 -540 Descending Chicago Center
04:23PM 42.9044 -90.3472 72° East 202 232 8,600 -540 Descending Chicago Center
04:24PM 42.9214 -90.2761 72° East 201 231 8,100 -540 Descending Chicago Center
04:25PM 42.9419 -90.1908 72° East 199 229 7,500 -540 Descending Chicago Center
04:26PM 42.9578 -90.1225 72° East 193 222 7,000 -540 Descending Chicago Center
04:27PM 42.9742 -90.0542 72° East 192 221 6,500 -540 Descending Chicago Center
04:28PM 42.9908 -89.9861 71° East 191 220 6,000 -540 Descending Chicago Center
04:29PM 43.0108 -89.9078 71° East 191 220 5,500 -540 Descending Chicago Center
04:30PM 43.0403 -89.8494 55° Northeast 186 214 5,000 -300 Descending Chicago Center
04:31PM 43.0678 -89.7928 56° Northeast 181 208 5,000  Level Chicago Center
04:32PM 43.0922 -89.7378 59° Northeast 173 199 5,000  Level Chicago Center
04:33PM 43.1178 -89.6828 58° Northeast 171 197 5,000 -240 Level Chicago Center
04:34PM 43.1483 -89.6161 58° Northeast 172 198 4,600 -480 Descending Chicago Center
04:35PM 43.1772 -89.5617 54° Northeast 174 200 4,000 -420 Descending Chicago Center
04:36PM 43.2189 -89.5494 12° North 161 185 3,800 -360 Descending Chicago Center
04:37PM 43.2467 -89.5214 36° Northeast 149 171 3,300 -420 Descending Chicago Center
04:38PM 43.2217 -89.4789 129° Southeast 151 174 3,000 -240 Descending Chicago Center
04:39PM 43.2133 -89.4292 103° East 126 145 2,900 -360 Descending Chicago Center
04:40PM 43.1933 -89.4008 134° Southeast 111 128 2,300 -600 Descending Chicago Center
04:41PM 43.1733 -89.3756 137° Southeast 104 120 1,700 -540 Descending Chicago Center
04:42PM 43.1517 -89.3461 135° Southeast 102 117 1,200 -540 Descending Chicago Center
04:44PM 43.1333 -89.3333 131° Southeast  Level FlightAware Approximate